createdAt,value
2022-09-01T00:00:03.956Z,0.00
2022-09-01T00:01:03.895Z,0.00
2022-09-01T00:02:03.914Z,0.00
2022-09-01T00:03:03.822Z,0.00
2022-09-01T00:04:03.812Z,0.00
2022-09-01T00:05:03.696Z,0.00
2022-09-01T00:06:03.667Z,0.00
2022-09-01T00:07:03.578Z,0.00
2022-09-01T00:08:03.512Z,0.00
2022-09-01T00:09:03.546Z,0.00
2022-09-01T00:10:03.445Z,0.00
2022-09-01T00:11:03.417Z,0.00
2022-09-01T00:12:03.326Z,0.00
2022-09-01T00:13:03.284Z,0.00
2022-09-01T00:14:03.206Z,0.00
2022-09-01T00:15:03.197Z,0.00
2022-09-01T00:16:03.146Z,0.00
2022-09-01T00:17:03.080Z,0.00
2022-09-01T00:18:03.015Z,0.00
2022-09-01T00:19:02.986Z,0.00
2022-09-01T00:20:02.916Z,0.00
2022-09-01T00:21:02.856Z,0.00
2022-09-01T00:22:02.811Z,0.00
2022-09-01T00:23:02.789Z,0.00
2022-09-01T00:24:11.808Z,0.00
2022-09-01T00:27:11.727Z,0.00
2022-09-01T00:28:11.654Z,0.00
2022-09-01T00:29:11.590Z,0.00
2022-09-01T00:30:11.558Z,0.00
2022-09-01T00:31:11.579Z,0.00
2022-09-01T00:32:11.444Z,0.00
2022-09-01T00:33:11.394Z,0.00
2022-09-01T00:34:11.335Z,0.00
2022-09-01T00:35:11.292Z,0.00
2022-09-01T00:36:11.225Z,0.00
2022-09-01T00:37:11.197Z,0.00
2022-09-01T00:38:11.130Z,0.00
2022-09-01T00:39:11.053Z,0.00
2022-09-01T00:40:11.082Z,0.00
2022-09-01T00:41:10.967Z,0.00
2022-09-01T00:42:10.925Z,0.00
2022-09-01T00:43:10.898Z,0.00
2022-09-01T00:44:10.804Z,0.00
2022-09-01T00:45:10.769Z,0.00
2022-09-01T00:46:10.761Z,0.00
2022-09-01T00:47:10.664Z,0.00
2022-09-01T00:48:10.624Z,0.00
2022-09-01T00:49:10.586Z,0.00
2022-09-01T00:50:10.512Z,0.00
2022-09-01T00:51:10.487Z,0.00
2022-09-01T00:52:10.429Z,0.00
2022-09-01T00:53:10.372Z,0.00
2022-09-01T00:54:10.306Z,0.00
2022-09-01T00:55:10.277Z,0.00
2022-09-01T00:56:10.176Z,0.00
2022-09-01T00:57:10.149Z,0.00
2022-09-01T00:58:19.451Z,0.00
2022-09-01T00:59:10.070Z,0.00
2022-09-01T01:00:10.005Z,0.00
2022-09-01T01:01:09.993Z,0.00
2022-09-01T01:02:09.913Z,0.00
2022-09-01T01:03:09.825Z,0.00
2022-09-01T01:04:09.779Z,0.00
2022-09-01T01:05:14.225Z,0.00
2022-09-01T01:06:09.702Z,0.00
2022-09-01T01:07:09.627Z,0.00
2022-09-01T01:08:09.574Z,0.00
2022-09-01T01:09:09.501Z,0.00
2022-09-01T01:10:09.474Z,0.00
2022-09-01T01:11:09.439Z,0.00
2022-09-01T01:12:09.353Z,0.00
2022-09-01T01:13:09.306Z,0.00
2022-09-01T01:14:09.290Z,0.00
2022-09-01T01:15:09.224Z,0.00
2022-09-01T01:16:09.175Z,0.00
2022-09-01T01:17:09.110Z,0.00
2022-09-01T01:18:09.053Z,0.00
2022-09-01T01:19:08.996Z,0.00
2022-09-01T01:20:08.966Z,0.00
2022-09-01T01:21:08.919Z,0.00
2022-09-01T01:22:08.869Z,0.00
2022-09-01T01:23:08.798Z,0.00
2022-09-01T01:24:08.764Z,0.00
2022-09-01T01:25:08.707Z,0.00
2022-09-01T01:26:08.659Z,0.00
2022-09-01T01:27:08.587Z,0.00
2022-09-01T01:28:08.519Z,0.00
2022-09-01T01:29:08.476Z,0.00
2022-09-01T01:30:09.318Z,0.00
2022-09-01T01:31:08.473Z,0.00
2022-09-01T01:32:08.315Z,0.00
2022-09-01T01:33:08.268Z,0.00
2022-09-01T01:34:08.213Z,0.00
2022-09-01T01:35:08.180Z,0.00
2022-09-01T01:36:08.091Z,0.00
2022-09-01T01:37:08.090Z,0.00
2022-09-01T01:38:08.076Z,0.00
2022-09-01T01:39:07.996Z,0.00
2022-09-01T01:40:07.951Z,0.00
2022-09-01T01:41:07.837Z,0.00
2022-09-01T01:42:07.816Z,0.00
2022-09-01T01:43:07.766Z,0.00
2022-09-01T01:44:07.701Z,0.00
2022-09-01T01:45:07.680Z,0.00
2022-09-01T01:46:07.697Z,0.00
2022-09-01T01:47:07.578Z,0.00
2022-09-01T01:48:07.515Z,0.00
2022-09-01T01:49:07.438Z,0.00
2022-09-01T01:50:07.377Z,0.00
2022-09-01T01:51:07.325Z,0.00
2022-09-01T01:52:08.192Z,0.00
2022-09-01T01:53:10.837Z,0.00
2022-09-01T01:54:07.206Z,0.00
2022-09-01T01:55:07.126Z,0.00
2022-09-01T01:56:07.094Z,0.00
2022-09-01T01:57:07.050Z,0.00
2022-09-01T01:58:06.976Z,0.00
2022-09-01T01:59:06.921Z,0.00
2022-09-01T02:00:06.873Z,0.00
2022-09-01T02:01:06.859Z,0.00
2022-09-01T02:02:06.830Z,0.00
2022-09-01T02:03:06.699Z,0.00
2022-09-01T02:04:06.684Z,0.00
2022-09-01T02:05:06.607Z,0.00
2022-09-01T02:06:06.551Z,0.00
2022-09-01T02:07:06.532Z,0.00
2022-09-01T02:08:06.438Z,0.00
2022-09-01T02:09:06.414Z,0.00
2022-09-01T02:10:06.358Z,0.00
2022-09-01T02:11:06.298Z,0.00
2022-09-01T02:12:06.238Z,0.00
2022-09-01T02:13:06.186Z,0.00
2022-09-01T02:14:06.157Z,0.00
2022-09-01T02:15:06.090Z,0.00
2022-09-01T02:16:06.055Z,0.00
2022-09-01T02:17:06.019Z,0.00
2022-09-01T02:18:05.962Z,0.00
2022-09-01T02:19:05.869Z,0.00
2022-09-01T02:20:05.846Z,0.00
2022-09-01T02:21:05.766Z,0.00
2022-09-01T02:22:05.719Z,0.00
2022-09-01T02:23:05.665Z,0.00
2022-09-01T02:24:05.637Z,0.00
2022-09-01T02:25:05.583Z,0.00
2022-09-01T02:26:16.223Z,0.00
2022-09-01T02:27:05.451Z,0.00
2022-09-01T02:28:05.393Z,0.00
2022-09-01T02:29:05.372Z,0.00
2022-09-01T02:30:05.318Z,0.00
2022-09-01T02:31:05.334Z,0.00
2022-09-01T02:32:05.204Z,0.00
2022-09-01T02:33:05.135Z,0.00
2022-09-01T02:34:05.129Z,0.00
2022-09-01T02:35:05.043Z,0.00
2022-09-01T02:36:05.012Z,0.00
2022-09-01T02:37:04.930Z,0.00
2022-09-01T02:38:04.880Z,0.00
2022-09-01T02:39:04.853Z,0.00
2022-09-01T02:40:04.803Z,0.00
2022-09-01T02:41:04.752Z,0.00
2022-09-01T02:42:04.669Z,0.00
2022-09-01T02:43:04.628Z,0.00
2022-09-01T02:44:04.602Z,0.00
2022-09-01T02:45:04.533Z,0.00
2022-09-01T02:46:04.524Z,0.00
2022-09-01T02:47:04.414Z,0.00
2022-09-01T02:48:04.364Z,0.00
2022-09-01T02:49:04.312Z,0.00
2022-09-01T02:50:04.272Z,0.00
2022-09-01T02:51:04.197Z,0.00
2022-09-01T02:52:04.142Z,0.00
2022-09-01T02:53:04.115Z,0.00
2022-09-01T02:54:04.071Z,0.00
2022-09-01T02:55:04.007Z,0.00
2022-09-01T02:56:03.932Z,0.00
2022-09-01T02:57:03.887Z,0.00
2022-09-01T02:58:03.838Z,0.00
2022-09-01T02:59:03.790Z,0.00
2022-09-01T03:00:03.760Z,0.00
2022-09-01T03:01:03.770Z,0.00
2022-09-01T03:02:03.805Z,0.00
2022-09-01T03:03:03.581Z,0.00
2022-09-01T03:04:03.549Z,0.00
2022-09-01T03:05:03.529Z,0.00
2022-09-01T03:06:03.418Z,0.00
2022-09-01T03:07:03.398Z,0.00
2022-09-01T03:08:03.319Z,0.00
2022-09-01T03:09:03.283Z,0.00
2022-09-01T03:10:03.220Z,0.00
2022-09-01T03:11:03.154Z,0.00
2022-09-01T03:12:03.436Z,0.00
2022-09-01T03:13:03.055Z,0.00
2022-09-01T03:14:03.042Z,0.00
2022-09-01T03:15:02.951Z,0.00
2022-09-01T03:16:02.964Z,0.00
2022-09-01T03:17:02.910Z,0.00
2022-09-01T03:18:02.822Z,0.00
2022-09-01T03:19:02.771Z,0.00
2022-09-01T03:20:02.682Z,0.00
2022-09-01T03:21:02.621Z,0.00
2022-09-01T03:22:02.609Z,0.00
2022-09-01T03:23:02.554Z,0.00
2022-09-01T03:24:02.510Z,0.00
2022-09-01T03:25:02.439Z,0.00
2022-09-01T03:26:02.364Z,0.00
2022-09-01T03:27:02.329Z,0.00
2022-09-01T03:28:03.146Z,0.00
2022-09-01T03:29:02.249Z,0.00
2022-09-01T03:30:02.170Z,0.00
2022-09-01T03:31:02.125Z,0.00
2022-09-01T03:32:02.103Z,0.00
2022-09-01T03:33:02.005Z,0.00
2022-09-01T03:34:01.953Z,0.00
2022-09-01T03:35:01.946Z,0.00
2022-09-01T03:36:01.872Z,0.00
2022-09-01T03:37:01.785Z,0.00
2022-09-01T03:38:01.736Z,0.00
2022-09-01T03:39:01.701Z,0.00
2022-09-01T03:40:01.720Z,0.00
2022-09-01T03:41:01.595Z,0.00
2022-09-01T03:42:01.552Z,0.00
2022-09-01T03:43:01.486Z,0.00
2022-09-01T03:44:01.431Z,0.00
2022-09-01T03:45:01.417Z,0.00
2022-09-01T03:46:01.371Z,0.00
2022-09-01T03:47:01.270Z,0.00
2022-09-01T03:48:01.250Z,0.00
2022-09-01T03:49:01.176Z,0.00
2022-09-01T03:50:01.183Z,0.00
2022-09-01T03:51:01.067Z,0.00
2022-09-01T03:52:01.032Z,0.00
2022-09-01T03:53:00.987Z,0.00
2022-09-01T03:54:00.916Z,0.00
2022-09-01T03:55:00.870Z,0.00
2022-09-01T03:56:00.801Z,0.00
2022-09-01T03:57:00.788Z,0.00
2022-09-01T03:58:00.708Z,0.00
2022-09-01T03:59:00.646Z,0.00
2022-09-01T04:00:00.605Z,0.00
2022-09-01T04:01:00.574Z,0.00
2022-09-01T04:02:00.666Z,0.00
2022-09-01T04:03:00.448Z,0.00
2022-09-01T04:04:00.373Z,0.00
2022-09-01T04:05:00.345Z,0.00
2022-09-01T04:06:00.271Z,0.00
2022-09-01T04:07:00.270Z,0.00
2022-09-01T04:08:00.195Z,4.00
2022-09-01T04:09:00.127Z,4.00
2022-09-01T04:10:00.094Z,0.00
2022-09-01T04:11:00.026Z,0.00
2022-09-01T04:11:59.995Z,4.00
2022-09-01T04:12:59.913Z,0.00
2022-09-01T04:13:59.910Z,4.00
2022-09-01T04:14:59.830Z,4.00
2022-09-01T04:15:59.919Z,8.00
2022-09-01T04:16:59.734Z,8.00
2022-09-01T04:17:59.656Z,8.00
2022-09-01T04:18:59.605Z,12.00
2022-09-01T04:19:59.566Z,8.00
2022-09-01T04:20:59.540Z,12.00
2022-09-01T04:21:59.474Z,12.00
2022-09-01T04:22:59.390Z,16.00
2022-09-01T04:23:59.343Z,20.00
2022-09-01T04:24:59.406Z,24.00
2022-09-01T04:25:59.270Z,24.00
2022-09-01T04:26:59.207Z,28.00
2022-09-01T04:27:59.144Z,36.00
2022-09-01T04:28:59.086Z,40.00
2022-09-01T04:29:59.040Z,40.00
2022-09-01T04:30:59.017Z,44.00
2022-09-01T04:31:58.997Z,48.00
2022-09-01T04:32:58.871Z,56.00
2022-09-01T04:33:58.863Z,60.00
2022-09-01T04:34:58.783Z,64.00
2022-09-01T04:35:58.712Z,72.00
2022-09-01T04:36:58.671Z,80.00
2022-09-01T04:37:58.635Z,88.00
2022-09-01T04:38:58.565Z,92.00
2022-09-01T04:39:58.513Z,100.00
2022-09-01T04:40:58.465Z,108.00
2022-09-01T04:41:58.409Z,120.00
2022-09-01T04:42:58.375Z,128.00
2022-09-01T04:43:58.296Z,140.00
2022-09-01T04:44:58.264Z,148.00
2022-09-01T04:45:58.239Z,160.00
2022-09-01T04:46:58.149Z,172.00
2022-09-01T04:47:58.117Z,180.00
2022-09-01T04:48:58.029Z,200.00
2022-09-01T04:49:58.006Z,216.00
2022-09-01T04:50:57.933Z,240.00
2022-09-01T04:51:57.883Z,268.00
2022-09-01T04:52:57.853Z,296.00
2022-09-01T04:53:57.825Z,320.00
2022-09-01T04:54:57.732Z,344.00
2022-09-01T04:55:57.663Z,372.00
2022-09-01T04:56:57.632Z,396.00
2022-09-01T04:57:57.613Z,420.00
2022-09-01T04:58:57.528Z,444.00
2022-09-01T04:59:57.482Z,472.00
2022-09-01T05:00:57.441Z,492.00
2022-09-01T05:01:57.621Z,516.00
2022-09-01T05:02:57.290Z,540.00
2022-09-01T05:03:57.277Z,568.00
2022-09-01T05:04:57.247Z,592.00
2022-09-01T05:05:57.149Z,620.00
2022-09-01T05:06:57.073Z,648.00
2022-09-01T05:07:57.026Z,676.00
2022-09-01T05:08:56.994Z,704.00
2022-09-01T05:10:01.017Z,732.00
2022-09-01T05:10:57.171Z,760.00
2022-09-01T05:11:56.860Z,792.00
2022-09-01T05:12:56.829Z,816.00
2022-09-01T05:13:56.727Z,844.00
2022-09-01T05:14:56.698Z,872.00
2022-09-01T05:15:56.630Z,904.00
2022-09-01T05:16:56.576Z,936.00
2022-09-01T05:17:56.533Z,964.00
2022-09-01T05:18:56.486Z,996.00
2022-09-01T05:19:56.426Z,1028.00
2022-09-01T05:20:56.372Z,1060.00
2022-09-01T05:21:56.335Z,1084.00
2022-09-01T05:22:56.254Z,1112.00
2022-09-01T05:23:56.205Z,1148.00
2022-09-01T05:24:56.155Z,1184.00
2022-09-01T05:25:56.102Z,1216.00
2022-09-01T05:26:56.066Z,1244.00
2022-09-01T05:27:55.979Z,1276.00
2022-09-01T05:28:55.925Z,1300.00
2022-09-01T05:29:55.896Z,1324.00
2022-09-01T05:30:55.833Z,1356.00
2022-09-01T05:31:55.801Z,1384.00
2022-09-01T05:32:55.728Z,1408.00
2022-09-01T05:33:55.686Z,1428.00
2022-09-01T05:34:55.633Z,1448.00
2022-09-01T05:35:55.574Z,1476.00
2022-09-01T05:36:55.554Z,1504.00
2022-09-01T05:37:55.482Z,1544.00
2022-09-01T05:38:55.443Z,1584.00
2022-09-01T05:39:55.344Z,1760.00
2022-09-01T05:40:55.287Z,1956.00
2022-09-01T05:41:55.236Z,1820.00
2022-09-01T05:42:55.205Z,1696.00
2022-09-01T05:44:00.355Z,1736.00
2022-09-01T05:44:55.129Z,1772.00
2022-09-01T05:46:06.079Z,1804.00
2022-09-01T05:46:55.065Z,1832.00
2022-09-01T05:47:54.946Z,1868.00
2022-09-01T05:48:54.914Z,1912.00
2022-09-01T05:49:54.857Z,1948.00
2022-09-01T05:50:54.823Z,1976.00
2022-09-01T05:51:54.713Z,2008.00
2022-09-01T05:52:54.673Z,2032.00
2022-09-01T05:53:54.642Z,2056.00
2022-09-01T05:54:54.604Z,2092.00
2022-09-01T05:55:54.544Z,2132.00
2022-09-01T05:56:54.461Z,2168.00
2022-09-01T05:57:54.433Z,2196.00
2022-09-01T05:59:54.521Z,2272.00
2022-09-01T06:00:54.254Z,2312.00
2022-09-01T06:01:54.623Z,2352.00
2022-09-01T06:02:54.269Z,2388.00
2022-09-01T06:03:54.103Z,2420.00
2022-09-01T06:04:54.098Z,2452.00
2022-09-01T06:05:54.002Z,2488.00
2022-09-01T06:07:11.101Z,2528.00
2022-09-01T06:07:53.890Z,2576.00
2022-09-01T06:08:53.821Z,2612.00
2022-09-01T06:09:53.931Z,2648.00
2022-09-01T06:10:53.744Z,2668.00
2022-09-01T06:11:53.704Z,2692.00
2022-09-01T06:12:54.497Z,2728.00
2022-09-01T06:13:55.440Z,2772.00
2022-09-01T06:14:53.557Z,2796.00
2022-09-01T06:15:53.543Z,2820.00
2022-09-01T06:16:53.431Z,2860.00
2022-09-01T06:17:53.381Z,2892.00
2022-09-01T06:18:53.320Z,2932.00
2022-09-01T06:19:53.322Z,2980.00
2022-09-01T06:20:53.218Z,3036.00
2022-09-01T06:21:53.166Z,3116.00
2022-09-01T06:22:53.266Z,3184.00
2022-09-01T06:23:53.067Z,3208.00
2022-09-01T06:24:56.704Z,3176.00
2022-09-01T06:25:52.970Z,3156.00
2022-09-01T06:26:52.905Z,3188.00
2022-09-01T06:27:52.953Z,3248.00
2022-09-01T06:28:52.825Z,3304.00
2022-09-01T06:29:52.815Z,3376.00
2022-09-01T06:30:52.765Z,3444.00
2022-09-01T06:31:52.724Z,3504.00
2022-09-01T06:32:52.620Z,3528.00
2022-09-01T06:33:52.630Z,3528.00
2022-09-01T06:34:54.408Z,3556.00
2022-09-01T06:35:52.628Z,3604.00
2022-09-01T06:36:52.383Z,3672.00
2022-09-01T06:37:52.356Z,3700.00
2022-09-01T06:38:52.310Z,3720.00
2022-09-01T06:39:52.256Z,3728.00
2022-09-01T06:40:54.678Z,3756.00
2022-09-01T06:41:52.121Z,3832.00
2022-09-01T06:42:52.078Z,3924.00
2022-09-01T06:43:52.009Z,4012.00
2022-09-01T06:44:52.010Z,4116.00
2022-09-01T06:45:51.915Z,4204.00
2022-09-01T06:46:52.064Z,4240.00
2022-09-01T06:47:51.827Z,4252.00
2022-09-01T06:48:51.775Z,4256.00
2022-09-01T06:49:54.749Z,4284.00
2022-09-01T06:51:51.629Z,4368.00
2022-09-01T06:53:51.537Z,4352.00
2022-09-01T06:54:51.474Z,4356.00
2022-09-01T06:55:51.412Z,4432.00
2022-09-01T06:56:52.724Z,4528.00
2022-09-01T06:58:06.750Z,4596.00
2022-09-01T06:58:51.254Z,4620.00
2022-09-01T06:59:52.536Z,4608.00
2022-09-01T07:00:51.138Z,4584.00
2022-09-01T07:01:51.315Z,4628.00
2022-09-01T07:02:51.155Z,4736.00
2022-09-01T07:03:51.016Z,4828.00
2022-09-01T07:04:50.964Z,4872.00
2022-09-01T07:06:06.169Z,4880.00
2022-09-01T07:08:04.703Z,4860.00
2022-09-01T07:10:06.090Z,4852.00
2022-09-01T07:17:50.335Z,5168.00
2022-09-01T07:18:58.353Z,5088.00
2022-09-01T07:19:50.197Z,4956.00
2022-09-01T07:21:35.745Z,4868.00
2022-09-01T07:23:06.352Z,4616.00
2022-09-01T07:24:10.561Z,4464.00
2022-09-01T07:25:11.578Z,4376.00
2022-09-01T07:26:02.385Z,4360.00
2022-09-01T07:26:49.831Z,4404.00
2022-09-01T07:27:49.798Z,4460.00
2022-09-01T07:28:49.760Z,4496.00
2022-09-01T07:29:49.694Z,4508.00
2022-09-01T07:30:49.658Z,4468.00
2022-09-01T07:31:50.060Z,4416.00
2022-09-01T07:32:49.529Z,4380.00
2022-09-01T07:33:54.007Z,4344.00
2022-09-01T07:34:50.132Z,4276.00
2022-09-01T07:39:56.135Z,4024.00
2022-09-01T07:42:31.771Z,4008.00
2022-09-01T07:42:56.296Z,5180.00
2022-09-01T07:43:48.995Z,3928.00
2022-09-01T07:44:48.917Z,3944.00
2022-09-01T07:45:58.340Z,3984.00
2022-09-01T07:47:19.605Z,3996.00
2022-09-01T07:47:52.622Z,3992.00
2022-09-01T07:50:12.528Z,3948.00
2022-09-01T07:51:49.960Z,3888.00
2022-09-01T07:52:49.433Z,3876.00
2022-09-01T07:53:49.473Z,3836.00
2022-09-01T07:54:48.470Z,3784.00
2022-09-01T07:55:48.380Z,3740.00
2022-09-01T07:56:48.320Z,3708.00
2022-09-01T07:57:48.928Z,3636.00
2022-09-01T07:58:48.258Z,3564.00
2022-09-01T07:59:49.023Z,3504.00
2022-09-01T08:00:48.124Z,3472.00
2022-09-01T08:01:48.098Z,3492.00
2022-09-01T08:02:48.069Z,3496.00
2022-09-01T08:03:47.972Z,3464.00
2022-09-01T08:04:47.936Z,3416.00
2022-09-01T08:05:47.876Z,3344.00
2022-09-01T08:06:47.833Z,3320.00
2022-09-01T08:07:54.851Z,3308.00
2022-09-01T08:08:47.727Z,3240.00
2022-09-01T08:09:47.698Z,3244.00
2022-09-01T08:10:49.043Z,3276.00
2022-09-01T08:12:03.319Z,3344.00
2022-09-01T08:12:56.253Z,3460.00
2022-09-01T08:13:51.983Z,3688.00
2022-09-01T08:14:47.433Z,3444.00
2022-09-01T08:16:54.539Z,3332.00
2022-09-01T08:17:51.216Z,3360.00
2022-09-01T08:18:49.200Z,3404.00
2022-09-01T08:19:47.204Z,3424.00
2022-09-01T08:20:47.151Z,3448.00
2022-09-01T08:21:47.104Z,3508.00
2022-09-01T08:22:47.056Z,3628.00
2022-09-01T08:23:46.993Z,3756.00
2022-09-01T08:24:46.954Z,3780.00
2022-09-01T08:25:46.891Z,3756.00
2022-09-01T08:26:46.844Z,3828.00
2022-09-01T08:27:46.799Z,3852.00
2022-09-01T08:28:54.387Z,3948.00
2022-09-01T08:29:46.699Z,4040.00
2022-09-01T08:30:49.136Z,4068.00
2022-09-01T08:31:46.646Z,4044.00
2022-09-01T08:32:46.558Z,3968.00
2022-09-01T08:33:46.517Z,3948.00
2022-09-01T08:34:46.460Z,4096.00
2022-09-01T08:35:46.426Z,4232.00
2022-09-01T08:36:46.358Z,4596.00
2022-09-01T08:37:46.311Z,4636.00
2022-09-01T08:38:46.280Z,4540.00
2022-09-01T08:39:46.214Z,4628.00
2022-09-01T08:40:46.251Z,4452.00
2022-09-01T08:41:46.945Z,4368.00
2022-09-01T08:42:46.072Z,4424.00
2022-09-01T08:43:46.024Z,4612.00
2022-09-01T08:44:45.991Z,4796.00
2022-09-01T08:45:45.950Z,4872.00
2022-09-01T08:46:45.952Z,4900.00
2022-09-01T08:48:22.092Z,4948.00
2022-09-01T08:49:46.388Z,5160.00
2022-09-01T08:50:45.682Z,5232.00
2022-09-01T08:51:45.637Z,5308.00
2022-09-01T08:52:45.587Z,5340.00
2022-09-01T08:53:45.553Z,5372.00
2022-09-01T08:54:45.584Z,5316.00
2022-09-01T08:55:45.457Z,5228.00
2022-09-01T08:56:45.395Z,5224.00
2022-09-01T08:57:45.351Z,5328.00
2022-09-01T08:58:45.330Z,5504.00
2022-09-01T08:59:45.255Z,5712.00
2022-09-01T09:00:46.677Z,5856.00
2022-09-01T09:01:45.220Z,5908.00
2022-09-01T09:02:45.183Z,5908.00
2022-09-01T09:03:45.064Z,5892.00
2022-09-01T09:04:45.035Z,5856.00
2022-09-01T09:05:44.967Z,5848.00
2022-09-01T09:06:44.921Z,5912.00
2022-09-01T09:07:44.873Z,6120.00
2022-09-01T09:08:44.825Z,6332.00
2022-09-01T09:09:51.121Z,6536.00
2022-09-01T09:10:44.731Z,6608.00
2022-09-01T09:11:44.694Z,6632.00
2022-09-01T09:12:51.158Z,6648.00
2022-09-01T09:13:44.587Z,6804.00
2022-09-01T09:14:44.551Z,7028.00
2022-09-01T09:15:44.545Z,7176.00
2022-09-01T09:16:44.443Z,7188.00
2022-09-01T09:17:44.413Z,7120.00
2022-09-01T09:18:57.205Z,7104.00
2022-09-01T09:19:44.322Z,7108.00
2022-09-01T09:20:44.267Z,7096.00
2022-09-01T09:21:44.208Z,7048.00
2022-09-01T09:22:44.160Z,7044.00
2022-09-01T09:23:44.740Z,7040.00
2022-09-01T09:24:44.070Z,7020.00
2022-09-01T09:25:44.061Z,7032.00
2022-09-01T09:26:44.787Z,6996.00
2022-09-01T09:27:43.926Z,6812.00
2022-09-01T09:28:43.882Z,6400.00
2022-09-01T09:29:45.477Z,6248.00
2022-09-01T09:30:43.856Z,6252.00
2022-09-01T09:31:46.063Z,6372.00
2022-09-01T09:33:15.064Z,6412.00
2022-09-01T09:33:51.818Z,6344.00
2022-09-01T09:34:43.612Z,6276.00
2022-09-01T09:35:43.570Z,6224.00
2022-09-01T09:36:43.506Z,6536.00
2022-09-01T09:37:43.481Z,6220.00
2022-09-01T09:38:44.118Z,6236.00
2022-09-01T09:39:43.368Z,6152.00
2022-09-01T09:41:07.558Z,6048.00
2022-09-01T09:41:43.327Z,5988.00
2022-09-01T09:42:43.231Z,5892.00
2022-09-01T09:43:44.438Z,5872.00
2022-09-01T09:44:43.152Z,5808.00
2022-09-01T09:45:43.275Z,5568.00
2022-09-01T09:46:43.768Z,5316.00
2022-09-01T09:47:44.505Z,5120.00
2022-09-01T09:48:42.952Z,5028.00
2022-09-01T09:49:48.186Z,4932.00
2022-09-01T09:50:42.877Z,4788.00
2022-09-01T09:51:42.814Z,4748.00
2022-09-01T09:52:42.768Z,4780.00
2022-09-01T09:53:42.722Z,4832.00
2022-09-01T09:54:42.678Z,4708.00
2022-09-01T09:55:42.645Z,4600.00
2022-09-01T09:56:42.583Z,4516.00
2022-09-01T09:57:42.538Z,4476.00
2022-09-01T09:58:42.498Z,4436.00
2022-09-01T10:00:01.152Z,4416.00
2022-09-01T10:00:42.411Z,4436.00
2022-09-01T10:01:42.391Z,4508.00
2022-09-01T10:02:42.305Z,4696.00
2022-09-01T10:03:42.371Z,4596.00
2022-09-01T10:04:42.232Z,5488.00
2022-09-01T10:05:43.223Z,6484.00
2022-09-01T10:06:42.146Z,6412.00
2022-09-01T10:07:42.074Z,6388.00
2022-09-01T10:08:42.045Z,6336.00
2022-09-01T10:09:41.996Z,6304.00
2022-09-01T10:10:41.936Z,6324.00
2022-09-01T10:11:41.924Z,5936.00
2022-09-01T10:12:41.843Z,5664.00
2022-09-01T10:13:41.797Z,4988.00
2022-09-01T10:14:53.064Z,4708.00
2022-09-01T10:15:41.721Z,4372.00
2022-09-01T10:16:41.716Z,4332.00
2022-09-01T10:17:43.583Z,4512.00
2022-09-01T10:18:41.569Z,5216.00
2022-09-01T10:19:41.522Z,6040.00
2022-09-01T10:20:41.490Z,4700.00
2022-09-01T10:21:41.447Z,4200.00
2022-09-01T10:22:41.390Z,4320.00
2022-09-01T10:23:41.685Z,5284.00
2022-09-01T10:24:45.383Z,4468.00
2022-09-01T10:25:41.268Z,4136.00
2022-09-01T10:26:41.208Z,4128.00
2022-09-01T10:27:41.172Z,3940.00
2022-09-01T10:28:41.119Z,4052.00
2022-09-01T10:29:48.125Z,4588.00
2022-09-01T10:30:41.083Z,3984.00
2022-09-01T10:31:40.975Z,5380.00
2022-09-01T10:32:49.262Z,4116.00
2022-09-01T10:33:41.066Z,3876.00
2022-09-01T10:34:42.097Z,5048.00
2022-09-01T10:35:40.838Z,3676.00
2022-09-01T10:36:40.745Z,4384.00
2022-09-01T10:37:41.448Z,4532.00
2022-09-01T10:38:40.654Z,5292.00
2022-09-01T10:39:43.251Z,5068.00
2022-09-01T10:40:41.378Z,5028.00
2022-09-01T10:41:40.521Z,4876.00
2022-09-01T10:42:40.568Z,4292.00
2022-09-01T10:43:40.428Z,3732.00
2022-09-01T10:44:40.381Z,3448.00
2022-09-01T10:45:40.423Z,2940.00
2022-09-01T10:46:41.210Z,2844.00
2022-09-01T10:47:40.291Z,3512.00
2022-09-01T10:48:54.923Z,2880.00
2022-09-01T10:49:40.469Z,2884.00
2022-09-01T10:50:40.108Z,2876.00
2022-09-01T10:51:50.501Z,2800.00
2022-09-01T10:52:40.031Z,2748.00
2022-09-01T10:53:39.983Z,2592.00
2022-09-01T10:54:50.773Z,2544.00
2022-09-01T10:55:39.886Z,2492.00
2022-09-01T10:56:42.936Z,2476.00
2022-09-01T10:57:42.392Z,2440.00
2022-09-01T10:59:44.230Z,2424.00
2022-09-01T11:00:40.025Z,2620.00
2022-09-01T11:01:48.309Z,2384.00
2022-09-01T11:02:46.359Z,2264.00
2022-09-01T11:03:48.038Z,2232.00
2022-09-01T11:04:39.623Z,2268.00
2022-09-01T11:05:39.413Z,2240.00
2022-09-01T11:06:39.366Z,2232.00
2022-09-01T11:07:59.787Z,2212.00
2022-09-01T11:08:39.272Z,2208.00
2022-09-01T11:09:39.232Z,2200.00
2022-09-01T11:10:39.194Z,2216.00
2022-09-01T11:11:39.141Z,2264.00
2022-09-01T11:12:39.104Z,2340.00
2022-09-01T11:13:39.043Z,2392.00
2022-09-01T11:14:39.020Z,2436.00
2022-09-01T11:15:38.954Z,2512.00
2022-09-01T11:16:46.967Z,2572.00
2022-09-01T11:17:38.939Z,2604.00
2022-09-01T11:18:38.815Z,2620.00
2022-09-01T11:19:38.771Z,2616.00
2022-09-01T11:20:38.735Z,2632.00
2022-09-01T11:21:38.691Z,2676.00
2022-09-01T11:22:38.628Z,2736.00
2022-09-01T11:23:38.581Z,2804.00
2022-09-01T11:24:38.554Z,2860.00
2022-09-01T11:25:39.070Z,2916.00
2022-09-01T11:26:38.445Z,2988.00
2022-09-01T11:27:38.399Z,3072.00
2022-09-01T11:28:38.356Z,3132.00
2022-09-01T11:29:38.307Z,3216.00
2022-09-01T11:30:38.275Z,3300.00
2022-09-01T11:31:38.268Z,3392.00
2022-09-01T11:32:38.166Z,3484.00
2022-09-01T11:33:38.122Z,3556.00
2022-09-01T11:34:38.090Z,3636.00
2022-09-01T11:35:38.029Z,3700.00
2022-09-01T11:36:37.985Z,3756.00
2022-09-01T11:37:37.935Z,3812.00
2022-09-01T11:38:37.895Z,3888.00
2022-09-01T11:39:37.854Z,4028.00
2022-09-01T11:40:37.876Z,4120.00
2022-09-01T11:41:37.746Z,4536.00
2022-09-01T11:42:37.723Z,4180.00
2022-09-01T11:43:37.657Z,4112.00
2022-09-01T11:44:37.609Z,4140.00
2022-09-01T11:45:38.233Z,4376.00
2022-09-01T11:46:37.519Z,4276.00
2022-09-01T11:47:37.661Z,4260.00
2022-09-01T11:48:37.437Z,4300.00
2022-09-01T11:49:37.376Z,4512.00
2022-09-01T11:50:37.331Z,4196.00
2022-09-01T11:51:37.285Z,4196.00
2022-09-01T11:52:37.252Z,5272.00
2022-09-01T11:53:37.202Z,6252.00
2022-09-01T11:54:37.144Z,4456.00
2022-09-01T11:55:37.110Z,5392.00
2022-09-01T11:56:37.052Z,4396.00
2022-09-01T11:57:37.005Z,4136.00
2022-09-01T11:58:36.974Z,4808.00
2022-09-01T11:59:36.913Z,5864.00
2022-09-01T12:00:36.864Z,5776.00
2022-09-01T12:01:36.846Z,5684.00
2022-09-01T12:02:37.250Z,5620.00
2022-09-01T12:03:36.837Z,5540.00
2022-09-01T12:04:36.678Z,5184.00
2022-09-01T12:05:36.636Z,5468.00
2022-09-01T12:06:36.603Z,5188.00
2022-09-01T12:07:36.548Z,5332.00
2022-09-01T12:08:36.510Z,5248.00
2022-09-01T12:09:36.452Z,5240.00
2022-09-01T12:10:36.405Z,5216.00
2022-09-01T12:11:36.364Z,5104.00
2022-09-01T12:12:36.608Z,5100.00
2022-09-01T12:13:36.269Z,5068.00
2022-09-01T12:15:01.911Z,5104.00
2022-09-01T12:15:36.180Z,5060.00
2022-09-01T12:16:36.191Z,5048.00
2022-09-01T12:17:36.105Z,5088.00
2022-09-01T12:18:36.049Z,5108.00
2022-09-01T12:19:36.002Z,5072.00
2022-09-01T12:20:35.984Z,5068.00
2022-09-01T12:21:35.907Z,5016.00
2022-09-01T12:22:35.862Z,4996.00
2022-09-01T12:23:35.841Z,5016.00
2022-09-01T12:24:35.775Z,5052.00
2022-09-01T12:25:35.734Z,5116.00
2022-09-01T12:26:35.685Z,5132.00
2022-09-01T12:27:35.641Z,5100.00
2022-09-01T12:28:35.609Z,4992.00
2022-09-01T12:29:35.548Z,4876.00
2022-09-01T12:30:35.542Z,4840.00
2022-09-01T12:31:35.518Z,4804.00
2022-09-01T12:32:35.433Z,4804.00
2022-09-01T12:33:35.540Z,4732.00
2022-09-01T12:34:35.330Z,3128.00
2022-09-01T12:35:35.302Z,4200.00
2022-09-01T12:36:35.375Z,3112.00
2022-09-01T12:37:35.208Z,3520.00
2022-09-01T12:38:35.149Z,3616.00
2022-09-01T12:39:35.105Z,4196.00
2022-09-01T12:40:35.101Z,4464.00
2022-09-01T12:41:35.282Z,4368.00
2022-09-01T12:42:40.887Z,4556.00
2022-09-01T12:43:34.929Z,4560.00
2022-09-01T12:44:34.922Z,4620.00
2022-09-01T12:45:35.378Z,4604.00
2022-09-01T12:46:34.799Z,4520.00
2022-09-01T12:47:34.752Z,4488.00
2022-09-01T12:48:34.709Z,4436.00
2022-09-01T12:49:34.681Z,4360.00
2022-09-01T12:50:34.627Z,4360.00
2022-09-01T12:51:34.579Z,4232.00
2022-09-01T12:52:34.533Z,4408.00
2022-09-01T12:53:36.656Z,4324.00
2022-09-01T12:54:34.465Z,4260.00
2022-09-01T12:55:49.735Z,4192.00